Time;durP1;ratioP1;P1;durP2;ratioP2;P2;SDS_P1;SDS_P2;PMS_P1;PMS_P2;Temp;Humidity;BMP_temperature;BMP_pressure;BME280_temperature;BME280_humidity;BME280_pressure;Samples;Min_cycle;Max_cycle;Signal;HPM_P1;HPM_P2
2022/04/02 00:00:28;;;;;;;4.03;2.50;;;2.10;96.80;;;;;;5048976;28;20486;-83
2022/04/02 00:02:55;;;;;;;4.82;3.15;;;2.10;96.90;;;;;;5049699;28;20387;-82
2022/04/02 00:05:20;;;;;;;4.50;2.50;;;2.20;97.10;;;;;;5050681;28;20384;-81
2022/04/02 00:07:46;;;;;;;3.67;2.83;;;2.00;97.10;;;;;;5049370;28;20372;-80
2022/04/02 00:10:12;;;;;;;4.45;2.60;;;2.00;97.20;;;;;;5050835;28;20364;-81
2022/04/02 00:12:38;;;;;;;4.43;2.50;;;1.90;97.30;;;;;;5050621;28;20376;-82
2022/04/02 00:15:04;;;;;;;5.15;2.70;;;1.90;97.50;;;;;;5048690;28;20416;-82
2022/04/02 00:17:30;;;;;;;4.45;2.70;;;2.00;97.80;;;;;;5049478;28;20474;-81
2022/04/02 00:19:56;;;;;;;4.75;2.60;;;1.90;97.70;;;;;;5049367;28;20463;-82
2022/04/02 00:22:22;;;;;;;5.63;2.93;;;1.90;97.70;;;;;;5050441;28;20474;-83
2022/04/02 00:24:48;;;;;;;4.32;2.75;;;1.80;97.90;;;;;;5050125;28;20407;-82
2022/04/02 00:27:13;;;;;;;6.10;3.03;;;1.80;98.10;;;;;;5050085;28;20477;-82
2022/04/02 00:29:40;;;;;;;5.13;2.75;;;1.90;98.10;;;;;;5050235;28;20380;-81
2022/04/02 00:32:06;;;;;;;4.68;2.80;;;1.90;98.10;;;;;;5049074;28;20400;-82
2022/04/02 00:34:32;;;;;;;5.88;2.80;;;1.80;98.10;;;;;;5048847;28;20367;-81
2022/04/02 00:36:58;;;;;;;13.40;3.83;;;1.60;98.40;;;;;;5050024;28;20964;-81
2022/04/02 00:39:23;;;;;;;4.90;2.85;;;1.70;98.60;;;;;;5050494;28;20395;-81
2022/04/02 00:41:49;;;;;;;5.93;2.90;;;1.70;98.70;;;;;;5049836;28;20530;-81
2022/04/02 00:44:20;;;;;;;5.97;2.85;;;1.70;98.70;;;;;;5048800;28;20376;-80
2022/04/02 00:46:47;;;;;;;4.65;2.60;;;1.90;98.60;;;;;;5048721;28;20810;-80
2022/04/02 00:49:14;;;;;;;5.32;2.53;;;1.80;98.60;;;;;;5049144;28;20375;-81
2022/04/02 00:51:44;;;;;;;4.75;2.70;;;1.70;98.80;;;;;;5048758;28;20383;-81
2022/04/02 00:54:16;;;;;;;3.80;2.72;;;1.60;98.90;;;;;;5048524;28;20376;-81
2022/04/02 00:56:43;;;;;;;4.88;2.78;;;1.70;99.00;;;;;;5049947;28;21267;-83
2022/04/02 00:59:10;;;;;;;4.47;2.63;;;1.50;99.20;;;;;;5049016;28;20531;-85
2022/04/02 01:01:37;;;;;;;4.05;2.72;;;1.60;99.40;;;;;;5049882;28;20971;-81
2022/04/02 01:04:03;;;;;;;5.15;2.60;;;1.60;99.40;;;;;;5051911;28;20733;-82
2022/04/02 01:06:33;;;;;;;4.43;3.05;;;1.60;99.50;;;;;;5055665;28;20519;-80
2022/04/02 01:09:00;;;;;;;4.90;2.70;;;1.40;99.70;;;;;;5050071;28;20384;-82
2022/04/02 01:11:40;;;;;;;3.60;2.80;;;1.30;99.90;;;;;;5050715;28;20423;-81
2022/04/02 01:14:07;;;;;;;4.55;2.70;;;1.40;99.90;;;;;;5049599;28;20387;-80
2022/04/02 01:16:34;;;;;;;4.05;2.67;;;1.40;99.90;;;;;;5049992;28;20758;-81
2022/04/02 01:19:01;;;;;;;5.50;2.78;;;1.40;99.90;;;;;;5049679;28;20379;-80
2022/04/02 01:21:28;;;;;;;4.57;2.92;;;1.50;99.90;;;;;;5048283;28;20754;-81
2022/04/02 01:23:55;;;;;;;3.70;2.92;;;1.60;99.90;;;;;;5049662;28;20420;-83
2022/04/02 01:26:21;;;;;;;4.80;2.90;;;1.60;99.90;;;;;;5048423;28;20364;-80
2022/04/02 01:28:53;;;;;;;5.38;2.88;;;1.60;99.90;;;;;;5048348;28;20885;-82
2022/04/02 01:31:22;;;;;;;4.57;2.70;;;1.40;99.90;;;;;;5050044;28;20472;-83
2022/04/02 01:33:49;;;;;;;4.45;2.58;;;1.50;99.90;;;;;;5049662;28;20380;-82
2022/04/02 01:36:15;;;;;;;4.32;2.60;;;1.50;99.90;;;;;;5050070;28;20372;-81
2022/04/02 01:38:41;;;;;;;6.10;2.85;;;1.50;99.90;;;;;;5051892;28;20477;-81
2022/04/02 01:41:06;;;;;;;3.95;2.47;;;1.40;99.90;;;;;;5049470;28;21052;-81
2022/04/02 01:43:33;;;;;;;3.70;2.80;;;1.50;99.90;;;;;;5049387;28;20766;-82
2022/04/02 01:46:00;;;;;;;5.73;2.90;;;1.40;99.90;;;;;;5048981;28;20391;-82
2022/04/02 01:48:27;;;;;;;5.10;2.80;;;1.40;99.90;;;;;;5049494;28;20381;-84
2022/04/02 01:50:53;;;;;;;4.30;2.65;;;1.40;99.90;;;;;;5048127;28;20521;-81
2022/04/02 01:53:20;;;;;;;3.92;2.50;;;1.30;99.90;;;;;;5049375;28;20461;-83
2022/04/02 01:55:46;;;;;;;3.78;2.80;;;1.40;99.90;;;;;;5048029;28;20712;-82
2022/04/02 01:58:13;;;;;;;5.25;2.42;;;1.40;99.90;;;;;;5049375;28;20373;-82
2022/04/02 02:00:39;;;;;;;5.38;2.50;;;1.50;99.90;;;;;;5047935;28;20402;-81
2022/04/02 02:03:06;;;;;;;5.60;2.63;;;1.50;99.90;;;;;;5049257;28;20376;-81
2022/04/02 02:05:33;;;;;;;4.07;2.80;;;1.40;99.90;;;;;;5049379;28;20897;-81
2022/04/02 02:07:58;;;;;;;5.43;2.90;;;1.30;99.90;;;;;;5053044;28;20929;-82
2022/04/02 02:10:24;;;;;;;5.40;3.20;;;1.20;99.90;;;;;;5052892;28;20446;-83
2022/04/02 02:12:50;;;;;;;4.43;3.00;;;1.30;99.90;;;;;;5051965;28;20391;-82
2022/04/02 02:15:18;;;;;;;4.00;2.90;;;1.30;99.90;;;;;;5054686;28;20423;-81
2022/04/02 02:17:48;;;;;;;4.72;2.90;;;1.30;99.90;;;;;;5054091;28;20400;-81
2022/04/02 02:20:15;;;;;;;4.75;3.00;;;1.40;99.90;;;;;;5052946;28;20395;-82
2022/04/02 02:22:41;;;;;;;4.72;2.95;;;1.30;99.90;;;;;;5052642;28;20384;-81
2022/04/02 02:25:09;;;;;;;3.90;2.83;;;1.20;99.90;;;;;;5052585;28;20372;-82
2022/04/02 02:27:35;;;;;;;3.97;3.10;;;1.30;99.90;;;;;;5052783;28;20380;-82
2022/04/02 02:30:04;;;;;;;6.75;2.90;;;1.30;99.90;;;;;;5052696;28;20703;-82
2022/04/02 02:32:35;;;;;;;4.68;3.00;;;1.30;99.90;;;;;;5052839;28;20403;-82
2022/04/02 02:37:45;;;;;;;3.85;2.72;;;1.30;99.90;;;;;;5052314;28;20777;-82
2022/04/02 02:40:12;;;;;;;4.70;2.83;;;1.30;99.90;;;;;;5052064;28;20392;-81
2022/04/02 02:42:38;;;;;;;3.25;2.60;;;1.30;99.90;;;;;;5052501;28;20415;-81
2022/04/02 02:45:04;;;;;;;4.73;2.90;;;1.20;99.90;;;;;;5052446;28;20380;-82
2022/04/02 02:47:30;;;;;;;3.85;2.70;;;1.20;99.90;;;;;;5050779;28;20952;-80
2022/04/02 02:49:56;;;;;;;4.97;3.13;;;1.10;99.90;;;;;;5052202;28;20383;-81
2022/04/02 02:52:22;;;;;;;6.20;2.90;;;1.20;99.90;;;;;;5052139;28;20721;-82
2022/04/02 02:54:47;;;;;;;5.25;2.95;;;1.20;99.90;;;;;;5051880;28;20371;-83
2022/04/02 02:57:13;;;;;;;4.40;2.65;;;1.20;99.90;;;;;;5052055;28;20396;-82
2022/04/02 02:59:39;;;;;;;6.13;3.13;;;1.20;99.90;;;;;;5051773;28;20368;-80
2022/04/02 03:02:04;;;;;;;4.13;2.65;;;1.10;99.90;;;;;;5051836;28;20430;-81
2022/04/02 03:04:30;;;;;;;4.25;2.85;;;1.10;99.90;;;;;;5050483;28;20414;-81
2022/04/02 03:06:57;;;;;;;4.95;3.22;;;1.20;99.90;;;;;;5051703;28;20881;-82
2022/04/02 03:09:23;;;;;;;6.88;2.95;;;1.20;99.90;;;;;;5051821;28;20757;-82
2022/04/02 03:11:49;;;;;;;4.43;3.05;;;1.10;99.90;;;;;;5051543;28;20498;-82
2022/04/02 03:14:15;;;;;;;4.43;2.97;;;1.10;99.90;;;;;;5051876;28;20372;-84
2022/04/02 03:16:41;;;;;;;4.50;3.08;;;1.20;99.90;;;;;;5049608;28;20392;-83
2022/04/02 03:19:07;;;;;;;4.28;2.90;;;1.10;99.90;;;;;;5050820;28;20459;-81
2022/04/02 03:21:33;;;;;;;4.23;3.00;;;1.10;99.90;;;;;;5051770;28;20483;-81
2022/04/02 03:23:59;;;;;;;4.63;2.72;;;1.20;99.90;;;;;;5051876;28;20429;-80
2022/04/02 03:26:26;;;;;;;5.60;2.80;;;1.00;99.90;;;;;;5050289;28;20411;-81
2022/04/02 03:28:52;;;;;;;4.20;3.08;;;1.10;99.90;;;;;;5051861;28;20808;-82
2022/04/02 03:31:18;;;;;;;4.70;2.92;;;1.20;99.90;;;;;;5051683;28;20379;-81
2022/04/02 03:33:44;;;;;;;4.67;3.03;;;1.10;99.90;;;;;;5052692;28;20416;-81
2022/04/02 03:36:10;;;;;;;5.77;2.80;;;1.10;99.90;;;;;;5051435;28;20425;-81
2022/04/02 03:38:37;;;;;;;4.50;2.80;;;1.00;99.90;;;;;;5050249;28;20380;-81
2022/04/02 03:41:04;;;;;;;3.85;2.80;;;1.10;99.90;;;;;;5049915;28;20530;-81
2022/04/02 03:43:30;;;;;;;4.72;2.83;;;1.10;99.90;;;;;;5051689;28;20380;-84
2022/04/02 03:47:08;;;;;;;3.92;2.40;;;1.00;99.90;;;;;;5051609;28;20375;-81
2022/04/02 03:48:42;;;;;;;5.40;2.80;;;1.10;99.90;;;;;;5050951;28;20403;-82
2022/04/02 03:51:07;;;;;;;6.30;3.30;;;1.00;99.90;;;;;;5050352;28;20380;-82
2022/04/02 03:53:33;;;;;;;5.80;2.80;;;1.00;99.90;;;;;;5052212;28;20394;-81
2022/04/02 03:55:59;;;;;;;5.07;2.90;;;0.90;99.90;;;;;;5050563;28;20411;-82
2022/04/02 03:58:24;;;;;;;4.80;2.97;;;1.00;99.90;;;;;;5050530;28;20416;-82
2022/04/02 04:00:51;;;;;;;4.05;2.90;;;1.00;99.90;;;;;;5050351;28;20396;-83
2022/04/02 04:03:17;;;;;;;6.10;2.90;;;1.00;99.90;;;;;;5049566;28;20410;-81
2022/04/02 04:05:43;;;;;;;4.50;2.90;;;1.00;99.90;;;;;;5049339;28;20380;-82
2022/04/02 04:08:09;;;;;;;4.82;2.90;;;1.00;99.90;;;;;;5050661;28;20416;-83
2022/04/02 04:10:35;;;;;;;6.55;2.90;;;0.90;99.90;;;;;;5050657;28;20960;-82
2022/04/02 04:13:01;;;;;;;4.95;2.90;;;0.90;99.90;;;;;;5050583;28;20379;-81
2022/04/02 04:15:27;;;;;;;4.25;2.95;;;0.90;99.90;;;;;;5048995;28;20450;-81
2022/04/02 04:17:53;;;;;;;5.50;2.87;;;0.90;99.90;;;;;;5048877;28;20391;-82
2022/04/02 04:20:20;;;;;;;3.93;2.60;;;1.00;99.90;;;;;;5050915;28;20396;-83
2022/04/02 04:22:45;;;;;;;3.63;2.50;;;0.90;99.90;;;;;;5049460;28;20383;-82
2022/04/02 04:25:11;;;;;;;5.23;2.80;;;1.00;99.90;;;;;;5051522;28;20399;-81
2022/04/02 04:27:38;;;;;;;7.17;3.27;;;0.90;99.90;;;;;;5050894;28;20375;-83
2022/04/02 04:30:05;;;;;;;5.07;2.90;;;0.90;99.90;;;;;;5048853;28;20376;-83
2022/04/02 04:32:31;;;;;;;4.78;2.97;;;0.80;99.90;;;;;;5048984;28;20410;-83
2022/04/02 04:34:57;;;;;;;4.20;2.60;;;0.90;99.90;;;;;;5050122;28;20738;-83
2022/04/02 04:37:22;;;;;;;5.03;3.00;;;0.90;99.90;;;;;;5049028;28;20378;-83
2022/04/02 04:39:48;;;;;;;5.30;2.93;;;0.80;99.90;;;;;;5048963;28;20371;-83
2022/04/02 04:42:14;;;;;;;4.45;2.70;;;0.90;99.90;;;;;;5048597;28;20395;-82
2022/04/02 04:44:40;;;;;;;3.58;2.70;;;0.80;99.90;;;;;;5049996;28;20424;-82
2022/04/02 04:47:06;;;;;;;3.53;2.75;;;0.80;99.90;;;;;;5052439;28;20395;-82
2022/04/02 04:49:32;;;;;;;5.35;2.97;;;0.80;99.90;;;;;;5055131;28;20400;-83
2022/04/02 04:51:58;;;;;;;4.47;2.90;;;0.80;99.90;;;;;;5056935;28;20381;-82
2022/04/02 04:54:24;;;;;;;5.30;3.00;;;0.90;99.90;;;;;;5048674;28;20383;-82
2022/04/02 04:56:50;;;;;;;4.65;3.00;;;0.80;99.90;;;;;;5048737;28;20384;-83
2022/04/02 04:59:15;;;;;;;5.15;2.85;;;0.90;99.90;;;;;;5049916;28;20726;-82
2022/04/02 05:01:41;;;;;;;5.37;3.30;;;0.80;99.90;;;;;;5049790;28;20403;-82
2022/04/02 05:04:06;;;;;;;3.80;3.15;;;0.90;99.90;;;;;;5049905;28;20387;-81
2022/04/02 05:06:37;;;;;;;6.43;3.30;;;0.80;99.90;;;;;;5048343;28;20773;-83
2022/04/02 05:09:04;;;;;;;4.65;3.33;;;0.70;99.90;;;;;;5049964;28;20391;-83
2022/04/02 05:11:30;;;;;;;5.55;3.63;;;0.80;99.90;;;;;;5049788;28;20893;-83
2022/04/02 05:13:56;;;;;;;4.30;2.83;;;0.80;99.90;;;;;;5048655;28;20387;-82
2022/04/02 05:16:23;;;;;;;5.33;3.30;;;0.80;99.90;;;;;;5049570;28;20464;-84
2022/04/02 05:18:49;;;;;;;5.28;2.78;;;0.90;99.90;;;;;;5048177;28;20403;-82
2022/04/02 05:21:15;;;;;;;3.38;2.72;;;0.80;99.90;;;;;;5049446;28;20472;-84
2022/04/02 05:23:40;;;;;;;5.53;2.90;;;1.00;99.90;;;;;;5050026;28;20873;-82
2022/04/02 05:26:06;;;;;;;4.30;3.30;;;1.10;99.90;;;;;;5049297;28;20382;-82
2022/04/02 05:28:32;;;;;;;8.60;3.20;;;1.20;99.90;;;;;;5049375;28;20403;-83
2022/04/02 05:30:57;;;;;;;5.40;2.97;;;1.20;99.90;;;;;;5049896;28;20380;-82
2022/04/02 05:33:23;;;;;;;6.65;3.35;;;1.20;99.90;;;;;;5049324;28;20485;-83
2022/04/02 05:35:49;;;;;;;4.33;3.00;;;1.30;99.90;;;;;;5049637;28;20376;-84
2022/04/02 05:38:14;;;;;;;5.33;2.80;;;1.50;99.90;;;;;;5048115;28;20794;-83
2022/04/02 05:40:40;;;;;;;6.03;3.20;;;1.40;99.90;;;;;;5049891;28;20506;-81
2022/04/02 05:43:06;;;;;;;5.40;3.40;;;1.40;99.90;;;;;;5052283;28;20391;-84
2022/04/02 05:45:33;;;;;;;5.00;3.05;;;1.40;99.90;;;;;;5052569;28;20510;-83
2022/04/02 05:47:58;;;;;;;5.28;3.30;;;1.50;99.90;;;;;;5051810;28;20387;-83
2022/04/02 05:50:26;;;;;;;6.60;3.50;;;1.60;99.90;;;;;;5053603;28;20479;-83
2022/04/02 05:52:52;;;;;;;7.72;4.50;;;1.50;99.90;;;;;;5052068;28;20430;-83
2022/04/02 05:55:18;;;;;;;4.93;3.13;;;1.60;99.90;;;;;;5053435;28;20481;-82
2022/04/02 05:57:45;;;;;;;5.38;3.20;;;1.70;99.90;;;;;;5052320;28;20394;-83
2022/04/02 06:00:13;;;;;;;6.00;3.38;;;1.80;99.90;;;;;;5053283;28;20372;-81
2022/04/02 06:02:40;;;;;;;4.88;3.15;;;1.90;99.90;;;;;;5052025;28;20380;-84
2022/04/02 06:05:08;;;;;;;4.55;2.85;;;1.90;99.90;;;;;;5052960;28;20454;-83
2022/04/02 06:07:34;;;;;;;5.22;3.28;;;1.90;99.90;;;;;;5052206;28;20383;-83
2022/04/02 06:10:02;;;;;;;11.18;3.80;;;1.90;99.90;;;;;;5053109;28;20376;-82
2022/04/02 06:12:29;;;;;;;4.95;2.90;;;2.00;99.90;;;;;;5051668;28;20398;-82
2022/04/02 06:14:55;;;;;;;3.80;2.97;;;2.20;99.90;;;;;;5052810;28;20893;-82
2022/04/02 06:17:21;;;;;;;6.53;3.03;;;2.30;99.90;;;;;;5053249;28;20403;-83
2022/04/02 06:19:47;;;;;;;3.47;2.95;;;2.40;99.90;;;;;;5052648;28;20394;-83
2022/04/02 06:22:12;;;;;;;4.90;3.00;;;2.50;99.90;;;;;;5052646;28;20757;-83
2022/04/02 06:24:38;;;;;;;3.97;2.60;;;2.60;99.90;;;;;;5052498;28;20439;-81
2022/04/02 06:27:04;;;;;;;5.17;3.17;;;2.70;99.90;;;;;;5052992;28;20888;-83
2022/04/02 06:29:29;;;;;;;5.63;3.13;;;2.70;99.90;;;;;;5051661;28;20384;-83
2022/04/02 06:31:55;;;;;;;5.33;2.80;;;2.70;99.90;;;;;;5052529;28;20466;-83
2022/04/02 06:34:21;;;;;;;6.53;3.20;;;2.80;99.90;;;;;;5050992;28;20423;-83
2022/04/02 06:36:47;;;;;;;4.35;2.78;;;2.90;99.90;;;;;;5051233;28;20398;-82
2022/04/02 06:39:13;;;;;;;5.93;3.07;;;3.10;99.90;;;;;;5057997;28;20372;-82
2022/04/02 06:41:39;;;;;;;5.17;2.90;;;3.10;99.90;;;;;;5056412;28;20415;-82
2022/04/02 06:44:08;;;;;;;4.43;2.72;;;3.10;99.90;;;;;;5057272;28;20380;-83
2022/04/02 06:46:39;;;;;;;6.63;3.22;;;3.20;99.90;;;;;;5054890;28;21038;-81
2022/04/02 06:49:06;;;;;;;3.65;2.80;;;3.20;99.90;;;;;;5059683;28;20408;-82
2022/04/02 06:51:33;;;;;;;5.38;3.15;;;3.20;99.90;;;;;;5058050;28;20416;-84
2022/04/02 06:53:58;;;;;;;4.90;2.70;;;3.30;99.90;;;;;;5055892;28;20383;-82
2022/04/02 06:56:25;;;;;;;4.50;2.60;;;3.40;99.90;;;;;;5055314;28;20383;-84
2022/04/02 06:58:51;;;;;;;5.32;2.88;;;3.50;99.90;;;;;;5056549;28;20380;-81
2022/04/02 07:01:16;;;;;;;5.82;2.78;;;3.50;99.90;;;;;;5056827;28;20886;-83
2022/04/02 07:03:42;;;;;;;5.50;2.88;;;3.70;99.90;;;;;;5056615;28;20387;-84
2022/04/02 07:06:08;;;;;;;4.75;2.67;;;3.60;99.90;;;;;;5055158;28;20372;-81
2022/04/02 07:08:36;;;;;;;4.23;2.73;;;3.50;99.90;;;;;;5055781;28;20451;-83
2022/04/02 07:11:03;;;;;;;52.85;6.85;;;3.70;99.90;;;;;;5055661;28;20372;-82
2022/04/02 07:13:29;;;;;;;5.10;2.80;;;3.80;99.90;;;;;;5056062;28;20379;-83
2022/04/02 07:15:55;;;;;;;3.63;2.40;;;3.90;99.90;;;;;;5053103;28;20392;-82
2022/04/02 07:18:23;;;;;;;4.40;2.60;;;4.00;99.90;;;;;;5055611;28;20371;-84
2022/04/02 07:20:53;;;;;;;8.23;3.00;;;4.10;99.90;;;;;;5053762;28;20487;-83
2022/04/02 07:23:19;;;;;;;6.40;2.75;;;4.30;99.90;;;;;;5055756;28;20905;-82
2022/04/02 07:25:45;;;;;;;4.80;2.90;;;4.10;99.90;;;;;;5057951;28;20380;-83
2022/04/02 07:28:11;;;;;;;3.07;2.50;;;4.20;99.90;;;;;;5058471;28;20387;-82
2022/04/02 07:30:39;;;;;;;7.03;2.58;;;4.10;99.90;;;;;;5058408;28;20372;-84
2022/04/02 07:33:05;;;;;;;5.80;2.70;;;4.40;99.90;;;;;;5058636;28;20384;-83
2022/04/02 07:35:43;;;;;;;3.97;2.58;;;4.70;99.90;;;;;;5055991;28;20395;-83
2022/04/02 07:38:19;;;;;;;3.92;2.55;;;4.60;99.90;;;;;;5056428;28;20856;-83
2022/04/02 07:41:23;;;;;;;4.93;2.60;;;4.40;99.90;;;;;;5052660;28;20400;-84
2022/04/02 07:44:02;;;;;;;3.90;2.28;;;4.30;99.90;;;;;;5028830;28;20452;-83
2022/04/02 07:46:30;;;;;;;13.75;3.25;;;4.40;99.80;;;;;;5054291;28;20391;-86
2022/04/02 07:49:11;;;;;;;4.47;2.50;;;4.50;98.70;;;;;;5054679;28;20874;-83
2022/04/02 07:51:39;;;;;;;4.35;2.42;;;4.50;99.00;;;;;;5049544;28;20964;-83
2022/04/02 07:54:09;;;;;;;3.78;2.70;;;4.70;99.40;;;;;;5053387;28;20476;-84
2022/04/02 07:56:38;;;;;;;2.85;2.53;;;4.90;98.40;;;;;;5054461;28;20445;-83
2022/04/02 07:59:09;;;;;;;2.92;2.15;;;4.80;98.10;;;;;;5052044;28;20388;-82
2022/04/02 08:01:36;;;;;;;5.65;2.65;;;4.60;98.20;;;;;;5055533;28;20435;-81
2022/04/02 08:04:04;;;;;;;2.90;2.30;;;4.60;98.10;;;;;;5057150;28;20377;-83
2022/04/02 08:06:37;;;;;;;5.30;2.50;;;4.60;98.00;;;;;;5054932;28;20474;-84
2022/04/02 08:09:03;;;;;;;4.55;2.20;;;4.50;98.20;;;;;;5051866;28;20489;-84
2022/04/02 08:11:29;;;;;;;4.97;2.30;;;4.80;97.80;;;;;;5052197;28;20426;-83
2022/04/02 08:13:57;;;;;;;10.13;3.33;;;4.70;97.40;;;;;;5052248;28;20462;-83
2022/04/02 08:16:27;;;;;;;6.70;2.30;;;4.70;97.70;;;;;;5051339;28;20444;-84
2022/04/02 08:18:56;;;;;;;4.85;2.20;;;5.00;97.00;;;;;;5052365;28;20427;-84
2022/04/02 08:21:23;;;;;;;7.53;2.40;;;5.30;96.40;;;;;;5051841;28;20408;-83
2022/04/02 08:23:48;;;;;;;5.70;2.28;;;5.10;95.90;;;;;;5052391;28;20396;-83
2022/04/02 08:27:00;;;;;;;6.10;2.30;;;5.20;96.00;;;;;;5050216;28;20391;-84
2022/04/02 08:29:47;;;;;;;3.83;2.00;;;5.30;95.30;;;;;;5049883;28;20449;-84
2022/04/02 08:32:47;;;;;;;11.27;2.88;;;5.50;94.50;;;;;;5050641;28;20384;-85
2022/04/02 08:35:18;;;;;;;4.65;2.53;;;5.30;94.00;;;;;;5050980;28;20384;-83
2022/04/02 08:38:01;;;;;;;2.92;2.00;;;5.30;94.30;;;;;;5050642;28;20429;-82
2022/04/02 08:40:36;;;;;;;4.30;1.90;;;5.30;94.40;;;;;;5051116;28;20419;-86
2022/04/02 08:43:07;;;;;;;3.40;2.03;;;5.30;94.20;;;;;;5050019;28;20387;-84
2022/04/02 08:45:37;;;;;;;3.40;2.00;;;5.40;94.20;;;;;;5051394;28;20380;-82
2022/04/02 08:48:22;;;;;;;4.57;1.83;;;5.60;93.80;;;;;;5049214;28;20396;-83
2022/04/02 08:50:53;;;;;;;3.65;1.80;;;5.70;94.20;;;;;;5052031;28;20395;-84
2022/04/02 08:53:31;;;;;;;4.25;2.13;;;5.50;92.60;;;;;;5054086;28;20790;-83
2022/04/02 08:56:06;;;;;;;3.73;2.00;;;5.40;93.10;;;;;;5056914;28;20387;-84
2022/04/02 08:58:38;;;;;;;3.37;1.97;;;5.20;92.80;;;;;;5055106;28;20384;-82
2022/04/02 09:01:09;;;;;;;4.20;1.92;;;3.30;92.30;;;;;;5069736;28;20407;-86
2022/04/02 09:04:12;;;;;;;2.85;1.75;;;4.90;92.70;;;;;;5053813;28;20482;-83
2022/04/02 09:07:28;;;;;;;24.27;3.88;;;5.40;92.90;;;;;;5069556;28;20406;-85
2022/04/02 09:10:29;;;;;;;4.22;1.80;;;5.40;92.60;;;;;;5052344;28;20379;-85
2022/04/02 09:13:24;;;;;;;2.00;1.60;;;5.70;98.10;;;;;;5033431;28;20393;-84
2022/04/02 09:16:14;;;;;;;16.95;3.25;;;5.90;97.40;;;;;;5042442;28;20903;-83
2022/04/02 09:18:49;;;;;;;5.20;1.60;;;;;;;;;;5046795;28;20951;-83
2022/04/02 09:21:36;;;;;;;45.00;5.60;;;;;;;;;;5041168;28;20820;-84
2022/04/02 09:24:05;;;;;;;3.22;1.98;;;6.20;88.00;;;;;;5050035;28;20374;-83
2022/04/02 09:26:49;;;;;;;3.42;1.90;;;6.10;87.50;;;;;;5049181;28;20394;-83
2022/04/02 09:29:17;;;;;;;5.72;1.83;;;6.10;87.90;;;;;;5048742;28;20391;-84
2022/04/02 09:32:05;;;;;;;38.67;4.22;;;6.20;87.90;;;;;;5049401;28;20386;-84
2022/04/02 09:34:34;;;;;;;18.60;3.17;;;;;;;;;;5041217;28;20424;-84
2022/04/02 09:37:16;;;;;;;4.10;1.73;;;;;;;;;;5040452;28;20860;-83
2022/04/02 09:40:00;;;;;;;2.70;1.70;;;;;;;;;;5045616;28;20401;-84
2022/04/02 09:42:26;;;;;;;2.87;1.80;;;;;;;;;;5037477;28;20405;-84
2022/04/02 09:44:59;;;;;;;2.90;1.70;;;;;;;;;;5040651;28;21020;-83
2022/04/02 09:47:37;;;;;;;5.90;2.50;;;;;;;;;;5038849;28;20412;-86
2022/04/02 09:50:10;;;;;;;3.25;2.10;;;;;;;;;;5044528;28;20379;-83
2022/04/02 09:52:56;;;;;;;4.20;1.88;;;;;;;;;;5060412;28;20751;-82
2022/04/02 09:55:44;;;;;;;6.25;1.90;;;;;;;;;;5061313;28;20399;-82
2022/04/02 09:58:30;;;;;;;7.47;2.10;;;;;;;;;;5043393;28;20404;-85
2022/04/02 10:01:08;;;;;;;8.23;2.90;;;;;;;;;;5049493;28;20424;-86
2022/04/02 10:03:50;;;;;;;5.47;2.13;;;;;;;;;;5052259;28;20873;-85
2022/04/02 10:06:16;;;;;;;7.10;2.20;;;;;;;;;;5044361;28;20441;-84
2022/04/02 10:08:58;;;;;;;7.60;2.25;;;;;;;;;;5051346;28;20921;-85
2022/04/02 10:11:25;;;;;;;13.38;3.00;;;;;;;;;;5045506;28;20384;-84
2022/04/02 10:13:52;;;;;;;7.30;2.40;;;;;;;;;;5046181;28;20435;-84
2022/04/02 10:16:25;;;;;;;3.20;1.80;;;;;;;;;;5049271;28;20405;-83
2022/04/02 10:18:53;;;;;;;4.38;2.30;;;;;;;;;;5046418;28;20841;-86
2022/04/02 10:21:22;;;;;;;3.70;1.98;;;;;;;;;;5051284;28;20442;-86
2022/04/02 10:23:52;;;;;;;13.60;2.50;;;;;;;;;;5047641;28;20915;-83
2022/04/02 10:26:20;;;;;;;4.93;1.92;;;;;;;;;;5047681;28;20905;-83
2022/04/02 10:28:46;;;;;;;4.13;1.70;;;;;;;;;;5042913;28;20372;-84
2022/04/02 10:31:19;;;;;;;5.03;2.30;;;;;;;;;;5043674;28;20396;-83
2022/04/02 10:33:48;;;;;;;5.07;2.20;;;;;;;;;;5047235;28;20418;-82
2022/04/02 10:36:15;;;;;;;4.07;1.90;;;;;;;;;;5049949;28;20417;-83
2022/04/02 10:38:44;;;;;;;3.40;1.92;;;;;;;;;;5044330;28;20806;-81
2022/04/02 10:41:12;;;;;;;2.70;2.10;;;;;;;;;;5049250;28;20828;-83
2022/04/02 10:43:58;;;;;;;5.18;2.00;;;;;;;;;;5044907;28;20377;-81
2022/04/02 10:46:25;;;;;;;3.45;1.92;;;;;;;;;;5044263;28;20399;-82
2022/04/02 10:48:56;;;;;;;4.15;2.13;;;6.60;80.40;;;;;;5085840;28;20380;-83
2022/04/02 10:51:23;;;;;;;3.95;2.10;;;;;;;;;;5078028;28;20995;-82
2022/04/02 10:53:55;;;;;;;6.22;2.10;;;;;;;;;;5049184;28;20447;-81
2022/04/02 10:56:27;;;;;;;4.32;2.00;;;;;;;;;;5043082;28;20381;-81
2022/04/02 10:58:54;;;;;;;2.85;1.80;;;;;;;;;;5049374;28;20875;-82
2022/04/02 11:01:22;;;;;;;3.53;2.15;;;6.90;80.80;;;;;;5051755;28;20572;-84
2022/04/02 11:03:55;;;;;;;3.22;2.05;;;;;;;;;;5047638;28;20457;-81
2022/04/02 11:06:40;;;;;;;3.37;2.00;;;;;;;;;;5046918;28;20369;-81
2022/04/02 11:09:25;;;;;;;3.85;1.95;;;;;;;;;;5046374;28;20370;-81
2022/04/02 11:11:52;;;;;;;3.90;2.20;;;;;;;;;;5045280;28;20411;-82
2022/04/02 11:14:21;;;;;;;6.60;2.10;;;;;;;;;;5045931;28;20387;-82
2022/04/02 11:16:47;;;;;;;3.13;1.73;;;;;;;;;;5040770;28;20368;-81
2022/04/02 11:22:09;;;;;;;3.33;2.00;;;7.60;78.70;;;;;;5049157;28;20449;-83
2022/04/02 11:24:40;;;;;;;4.07;1.90;;;;;;;;;;5053890;28;20436;-83
2022/04/02 11:27:07;;;;;;;3.72;2.40;;;;;;;;;;5045671;28;20389;-83
2022/04/02 11:29:34;;;;;;;4.03;2.00;;;;;;;;;;5044586;28;20902;-83
2022/04/02 11:32:01;;;;;;;4.70;2.17;;;;;;;;;;5047990;28;20425;-83
2022/04/02 11:34:29;;;;;;;3.97;1.85;;;;;;;;;;5045584;28;20398;-84
2022/04/02 11:37:03;;;;;;;5.97;2.05;;;;;;;;;;5043427;28;20426;-83
2022/04/02 11:39:41;;;;;;;2.63;2.08;;;;;;;;;;5045616;28;20874;-82
2022/04/02 11:42:08;;;;;;;4.20;2.70;;;;;;;;;;5050307;28;20495;-85
2022/04/02 11:44:38;;;;;;;6.77;2.17;;;;;;;;;;5043330;28;20387;-85
2022/04/02 11:47:09;;;;;;;2.92;2.05;;;;;;;;;;5041517;28;20445;-83
2022/04/02 11:49:39;;;;;;;5.63;2.17;;;;;;;;;;5044481;28;20417;-82
2022/04/02 11:52:08;;;;;;;4.80;2.20;;;;;;;;;;5038533;28;20377;-82
2022/04/02 11:54:42;;;;;;;4.30;1.97;;;;;;;;;;5044196;28;20462;-83
2022/04/02 11:57:13;;;;;;;3.72;2.00;;;;;;;;;;5036661;28;20389;-82
2022/04/02 11:59:50;;;;;;;6.25;2.28;;;6.40;92.50;;;;;;5040472;28;20373;-84
2022/04/02 12:02:34;;;;;;;5.85;2.30;;;6.40;92.70;;;;;;5046329;28;20407;-84
2022/04/02 12:05:00;;;;;;;3.33;2.10;;;6.30;93.20;;;;;;5039641;28;20451;-82
2022/04/02 12:07:41;;;;;;;6.68;2.50;;;6.40;93.40;;;;;;5070550;28;20468;-82
2022/04/02 12:10:18;;;;;;;3.08;2.03;;;6.40;93.30;;;;;;5042677;28;20387;-82
2022/04/02 12:12:45;;;;;;;3.10;2.20;;;6.40;93.40;;;;;;5042553;28;20393;-81
2022/04/02 12:15:12;;;;;;;3.03;2.10;;;6.40;93.60;;;;;;5037318;28;20405;-84
2022/04/02 12:17:39;;;;;;;3.10;2.22;;;6.60;93.50;;;;;;5030243;28;20868;-83
2022/04/02 12:20:09;;;;;;;3.22;2.30;;;6.70;93.00;;;;;;5030888;28;20381;-82
2022/04/02 12:22:40;;;;;;;3.35;2.08;;;6.70;93.30;;;;;;5041300;28;20439;-84
2022/04/02 12:25:10;;;;;;;6.43;1.95;;;6.50;93.60;;;;;;5040886;28;20404;-84
2022/04/02 12:27:38;;;;;;;3.17;2.07;;;5.90;94.30;;;;;;5039246;28;20387;-84
2022/04/02 12:30:07;;;;;;;2.58;1.80;;;5.70;95.10;;;;;;5033770;28;20377;-83
2022/04/02 12:32:36;;;;;;;4.60;2.22;;;;;;;;;;5038137;28;20477;-84
2022/04/02 12:35:04;;;;;;;4.97;2.28;;;;;;;;;;5048502;28;20482;-86
2022/04/02 12:37:31;;;;;;;5.03;2.50;;;;;;;;;;5043401;28;20384;-85
2022/04/02 12:40:14;;;;;;;3.90;2.10;;;;;;;;;;5041343;28;20382;-85
2022/04/02 12:42:41;;;;;;;3.10;1.88;;;5.10;97.20;;;;;;5042892;28;20396;-84
2022/04/02 12:45:15;;;;;;;6.13;2.45;;;5.00;96.40;;;;;;5046152;28;20444;-84
2022/04/02 12:47:42;;;;;;;5.25;2.08;;;;;;;;;;5047930;28;20378;-82
2022/04/02 12:50:15;;;;;;;3.28;2.28;;;4.90;97.10;;;;;;5050944;28;20384;-84
2022/04/02 12:52:46;;;;;;;3.92;2.33;;;5.00;97.40;;;;;;5049735;28;20372;-83
2022/04/02 12:55:23;;;;;;;16.85;3.63;;;5.00;97.70;;;;;;5046195;28;20431;-84
2022/04/02 12:58:07;;;;;;;3.13;2.00;;;5.10;97.80;;;;;;5044914;28;20392;-83
2022/04/02 13:00:39;;;;;;;4.45;2.17;;;5.30;98.10;;;;;;5044920;28;20918;-82
2022/04/02 13:03:08;;;;;;;4.60;2.70;;;5.60;98.20;;;;;;5049831;28;20411;-84
2022/04/02 13:05:45;;;;;;;4.13;2.28;;;5.70;98.20;;;;;;5042954;28;20381;-85
2022/04/02 13:08:32;;;;;;;4.13;2.33;;;5.60;98.30;;;;;;5070728;28;20952;-85
2022/04/02 13:11:02;;;;;;;3.35;2.17;;;5.50;98.50;;;;;;5039224;28;20387;-82
2022/04/02 13:13:37;;;;;;;4.60;2.25;;;;;;;;;;5039586;28;20405;-83
2022/04/02 13:16:04;;;;;;;6.93;2.30;;;;;;;;;;5040323;28;20372;-84
2022/04/02 13:21:22;;;;;;;4.22;2.17;;;;;;;;;;5042809;28;20487;-83
2022/04/02 13:24:09;;;;;;;3.33;2.20;;;;;;;;;;5048322;28;20815;-85
2022/04/02 13:26:38;;;;;;;5.18;2.08;;;;;;;;;;5046793;28;20387;-85
2022/04/02 13:29:26;;;;;;;3.58;2.15;;;;;;;;;;5047078;28;20452;-84
2022/04/02 13:32:13;;;;;;;3.50;2.22;;;;;;;;;;5045628;28;20751;-84
2022/04/02 13:35:11;;;;;;;3.15;1.92;;;5.70;95.70;;;;;;5051392;28;20923;-84
2022/04/02 13:38:02;;;;;;;4.78;2.33;;;5.70;96.00;;;;;;5034912;28;20812;-85
2022/04/02 13:40:29;;;;;;;5.75;2.60;;;5.60;95.30;;;;;;5074410;28;20791;-83